createdAt,value
2017-12-11T00:02:17.469Z,1.40
2017-12-11T00:04:45.754Z,1.40
2017-12-11T00:07:14.035Z,1.40
2017-12-11T00:09:42.322Z,1.30
2017-12-11T00:12:10.730Z,1.30
2017-12-11T00:14:39.022Z,1.20
2017-12-11T00:17:07.313Z,1.20
2017-12-11T00:19:35.602Z,1.20
2017-12-11T00:22:03.918Z,1.20
2017-12-11T00:24:32.979Z,1.10
2017-12-11T00:27:01.313Z,1.10
2017-12-11T00:29:29.628Z,1.10
2017-12-11T00:31:57.943Z,1.10
2017-12-11T00:34:26.231Z,1.00
2017-12-11T00:36:54.518Z,1.00
2017-12-11T00:39:22.809Z,1.00
2017-12-11T00:41:51.131Z,0.90
2017-12-11T00:44:19.403Z,0.90
2017-12-11T00:46:47.679Z,0.90
2017-12-11T00:49:15.958Z,0.90
2017-12-11T00:51:44.254Z,0.90
2017-12-11T00:54:12.546Z,0.90
2017-12-11T00:56:40.836Z,0.90
2017-12-11T00:59:09.148Z,0.80
2017-12-11T01:01:37.451Z,0.80
2017-12-11T01:04:05.740Z,0.80
2017-12-11T01:06:34.028Z,0.80
2017-12-11T01:09:02.375Z,0.70
2017-12-11T01:11:30.677Z,0.70
2017-12-11T01:13:59.037Z,0.70
2017-12-11T01:16:27.342Z,0.60
2017-12-11T01:18:55.625Z,0.60
2017-12-11T01:21:24.081Z,0.60
2017-12-11T01:23:53.139Z,0.60
2017-12-11T01:26:21.418Z,0.60
2017-12-11T01:28:49.705Z,0.60
2017-12-11T01:31:18.064Z,0.60
2017-12-11T01:33:46.401Z,0.60
2017-12-11T01:36:14.684Z,0.60
2017-12-11T01:38:42.978Z,0.50
2017-12-11T01:41:11.302Z,0.50
2017-12-11T01:43:40.426Z,0.50
2017-12-11T01:46:10.275Z,0.50
2017-12-11T01:48:39.340Z,0.50
2017-12-11T01:51:07.651Z,0.50
2017-12-11T01:53:36.037Z,0.50
2017-12-11T01:56:04.464Z,0.40
2017-12-11T01:58:32.919Z,0.40
2017-12-11T02:01:01.293Z,0.40
2017-12-11T02:03:29.584Z,0.40
2017-12-11T02:05:57.866Z,0.40
2017-12-11T02:08:26.143Z,0.40
2017-12-11T02:10:54.466Z,0.40
2017-12-11T02:13:23.561Z,0.30
2017-12-11T02:15:52.614Z,0.30
2017-12-11T02:18:20.968Z,0.30
2017-12-11T02:20:50.095Z,0.30
2017-12-11T02:23:18.413Z,0.30
2017-12-11T02:25:46.811Z,0.30
2017-12-11T02:28:15.123Z,0.30
2017-12-11T02:30:44.367Z,0.30
2017-12-11T02:33:12.695Z,0.20
2017-12-11T02:35:41.000Z,0.20
2017-12-11T02:38:09.315Z,0.20
2017-12-11T02:40:37.631Z,0.20
2017-12-11T02:43:05.918Z,0.20
2017-12-11T02:45:34.243Z,0.20
2017-12-11T02:48:02.531Z,0.20
2017-12-11T02:50:30.915Z,0.20
2017-12-11T02:52:59.213Z,0.20
2017-12-11T02:55:27.641Z,0.10
2017-12-11T02:57:55.919Z,0.10
2017-12-11T03:00:24.205Z,0.10
2017-12-11T03:02:52.495Z,0.10
2017-12-11T03:05:20.774Z,0.10
2017-12-11T03:07:49.062Z,0.10
2017-12-11T03:10:17.342Z,0.10
2017-12-11T03:12:45.902Z,0.10
2017-12-11T03:15:14.447Z,0.10
2017-12-11T03:17:42.730Z,0.10
2017-12-11T03:20:11.012Z,0.00
2017-12-11T03:22:39.303Z,0.00
2017-12-11T03:25:07.595Z,0.00
2017-12-11T03:27:36.071Z,0.00
2017-12-11T03:30:04.459Z,0.00
2017-12-11T03:32:33.012Z,0.00
2017-12-11T03:35:01.340Z,0.00
2017-12-11T03:37:29.614Z,0.00
2017-12-11T03:39:57.908Z,0.00
2017-12-11T03:42:26.217Z,0.00
2017-12-11T03:44:54.514Z,0.00
2017-12-11T03:47:22.796Z,0.00
2017-12-11T03:49:51.081Z,0.00
2017-12-11T03:52:19.369Z,0.00
2017-12-11T03:54:47.678Z,0.00
2017-12-11T03:57:15.970Z,0.00
2017-12-11T03:59:44.283Z,0.00
2017-12-11T04:02:13.332Z,0.00
2017-12-11T04:04:41.610Z,0.00
2017-12-11T04:07:09.900Z,0.00
2017-12-11T04:09:38.460Z,0.00
2017-12-11T04:12:06.734Z,-0.10
2017-12-11T04:14:35.026Z,0.00
2017-12-11T04:17:05.247Z,0.00
2017-12-11T04:19:33.532Z,0.00
2017-12-11T04:22:01.843Z,-0.10
2017-12-11T04:24:30.142Z,-0.10
2017-12-11T04:27:00.221Z,-0.10
2017-12-11T04:29:30.098Z,-0.10
2017-12-11T04:31:58.822Z,-0.10
2017-12-11T04:34:27.452Z,-0.10
2017-12-11T04:36:55.848Z,-0.10
2017-12-11T04:39:24.139Z,0.00
2017-12-11T04:41:52.427Z,-0.10
2017-12-11T04:44:20.720Z,-0.10
2017-12-11T04:46:49.009Z,-0.10
2017-12-11T04:49:17.298Z,-0.10
2017-12-11T04:51:45.646Z,-0.20
2017-12-11T04:54:13.934Z,-0.20
2017-12-11T04:56:42.227Z,-0.20
2017-12-11T04:59:10.514Z,-0.10
2017-12-11T05:01:38.798Z,-0.10
2017-12-11T05:04:07.122Z,-0.10
2017-12-11T05:06:35.687Z,0.00
2017-12-11T05:09:04.041Z,0.00
2017-12-11T05:11:32.399Z,0.10
2017-12-11T05:14:00.762Z,0.10
2017-12-11T05:16:29.141Z,0.10
2017-12-11T05:18:58.285Z,0.10
2017-12-11T05:21:26.566Z,0.10
2017-12-11T05:23:54.874Z,0.10
2017-12-11T05:26:23.156Z,0.10
2017-12-11T05:28:51.435Z,0.10
2017-12-11T05:31:19.715Z,0.10
2017-12-11T05:33:49.311Z,0.20
2017-12-11T05:36:18.571Z,0.10
2017-12-11T05:38:46.968Z,0.10
2017-12-11T05:41:15.267Z,0.10
2017-12-11T05:43:43.562Z,0.10
2017-12-11T05:46:12.399Z,0.10
2017-12-11T05:48:40.733Z,0.10
2017-12-11T05:51:09.379Z,0.10
2017-12-11T05:53:38.433Z,0.10
2017-12-11T05:56:06.739Z,0.10
2017-12-11T05:58:35.195Z,0.10
2017-12-11T06:01:03.515Z,0.00
2017-12-11T06:03:32.703Z,0.00
2017-12-11T06:06:00.987Z,0.00
2017-12-11T06:08:29.336Z,0.00
2017-12-11T06:10:57.695Z,0.00
2017-12-11T06:13:26.070Z,0.00
2017-12-11T06:15:54.428Z,0.00
2017-12-11T06:18:22.803Z,0.00
2017-12-11T06:20:51.911Z,0.00
2017-12-11T06:23:21.269Z,0.00
2017-12-11T06:25:50.412Z,0.00
2017-12-11T06:28:19.539Z,0.10
2017-12-11T06:30:48.650Z,0.00
2017-12-11T06:33:17.079Z,0.00
2017-12-11T06:35:45.440Z,0.00
2017-12-11T06:38:13.845Z,0.00
2017-12-11T06:40:42.191Z,0.00
2017-12-11T06:43:10.491Z,0.10
2017-12-11T06:45:38.916Z,0.10
2017-12-11T06:48:07.255Z,0.10
2017-12-11T06:50:35.555Z,0.20
2017-12-11T06:53:03.844Z,0.20
2017-12-11T06:55:32.295Z,0.10
2017-12-11T06:58:00.645Z,0.10
2017-12-11T07:00:29.026Z,0.10
2017-12-11T07:02:58.078Z,0.00
2017-12-11T07:05:26.392Z,0.00
2017-12-11T07:07:54.684Z,0.10
2017-12-11T07:10:22.971Z,0.10
2017-12-11T07:12:51.262Z,0.00
2017-12-11T07:15:19.575Z,0.00
2017-12-11T07:17:47.920Z,0.10
2017-12-11T07:20:16.206Z,0.00
2017-12-11T07:22:44.519Z,0.00
2017-12-11T07:25:12.859Z,0.00
2017-12-11T07:27:41.261Z,0.00
2017-12-11T07:30:10.324Z,0.00
2017-12-11T07:32:39.708Z,0.00
2017-12-11T07:35:08.223Z,-0.10
2017-12-11T07:37:37.441Z,-0.10
2017-12-11T07:40:06.091Z,-0.10
2017-12-11T07:42:35.223Z,-0.10
2017-12-11T07:45:03.653Z,-0.10
2017-12-11T07:47:31.944Z,-0.10
2017-12-11T07:50:01.082Z,0.00
2017-12-11T07:52:29.432Z,0.00
2017-12-11T07:54:57.732Z,0.00
2017-12-11T07:57:26.034Z,0.00
2017-12-11T07:59:55.098Z,0.00
2017-12-11T08:02:23.419Z,0.00
2017-12-11T08:04:52.480Z,0.00
2017-12-11T08:07:20.792Z,0.00
2017-12-11T08:09:49.123Z,0.00
2017-12-11T08:12:17.468Z,0.00
2017-12-11T08:14:45.758Z,0.10
2017-12-11T08:17:14.055Z,0.10
2017-12-11T08:19:43.279Z,0.10
2017-12-11T08:22:11.578Z,0.10
2017-12-11T08:24:40.657Z,0.10
2017-12-11T08:27:08.965Z,0.10
2017-12-11T08:29:37.255Z,0.10
2017-12-11T08:32:05.550Z,0.10
2017-12-11T08:34:34.653Z,0.10
2017-12-11T08:37:02.943Z,0.10
2017-12-11T08:39:31.467Z,0.20
2017-12-11T08:41:59.787Z,0.20
2017-12-11T08:44:28.090Z,0.20
2017-12-11T08:46:56.393Z,0.20
2017-12-11T08:49:24.686Z,0.10
2017-12-11T08:51:52.981Z,0.10
2017-12-11T08:54:21.402Z,0.20
2017-12-11T08:56:49.710Z,0.20
2017-12-11T08:59:18.013Z,0.20
2017-12-11T09:01:46.324Z,0.20
2017-12-11T09:04:14.626Z,0.20
2017-12-11T09:06:42.947Z,0.10
2017-12-11T09:09:11.245Z,0.10
2017-12-11T09:11:39.577Z,0.10
2017-12-11T09:14:07.866Z,0.20
2017-12-11T09:16:36.203Z,0.20
2017-12-11T09:19:04.526Z,0.20
2017-12-11T09:21:32.820Z,0.20
2017-12-11T09:24:01.386Z,0.20
2017-12-11T09:26:29.702Z,0.20
2017-12-11T09:28:57.999Z,0.20
2017-12-11T09:31:26.307Z,0.20
2017-12-11T09:33:54.591Z,0.20
2017-12-11T09:36:23.002Z,0.20
2017-12-11T09:38:51.379Z,0.20
2017-12-11T09:41:19.801Z,0.20
2017-12-11T09:43:48.176Z,0.20
2017-12-11T09:46:17.310Z,0.20
2017-12-11T09:48:45.911Z,0.20
2017-12-11T09:51:14.203Z,0.20
2017-12-11T09:53:43.371Z,0.10
2017-12-11T09:56:13.391Z,0.10
2017-12-11T09:58:41.742Z,0.00
2017-12-11T10:01:11.194Z,0.00
2017-12-11T10:03:39.552Z,0.00
2017-12-11T10:06:07.883Z,0.00
2017-12-11T10:08:37.503Z,0.10
2017-12-11T10:11:06.001Z,0.10
2017-12-11T10:13:35.459Z,0.10
2017-12-11T10:16:03.912Z,0.10
2017-12-11T10:18:34.707Z,0.10
2017-12-11T10:21:03.986Z,0.10
2017-12-11T10:23:33.368Z,0.10
2017-12-11T10:26:01.689Z,0.00
2017-12-11T10:28:30.756Z,0.00
2017-12-11T10:30:59.049Z,0.00
2017-12-11T10:33:28.099Z,0.00
2017-12-11T10:35:56.407Z,0.00
2017-12-11T10:38:24.724Z,0.10
2017-12-11T10:40:53.023Z,0.10
2017-12-11T10:43:21.314Z,0.10
2017-12-11T10:45:49.600Z,0.10
2017-12-11T10:48:17.930Z,0.10
2017-12-11T10:50:47.003Z,0.10
2017-12-11T10:53:15.282Z,0.10
2017-12-11T10:55:43.560Z,0.10
2017-12-11T10:58:11.850Z,0.10
2017-12-11T11:00:40.159Z,0.10
2017-12-11T11:03:08.452Z,0.10
2017-12-11T11:05:36.875Z,0.20
2017-12-11T11:08:05.935Z,0.10
2017-12-11T11:10:34.225Z,0.10
2017-12-11T11:13:02.525Z,0.10
2017-12-11T11:15:30.806Z,0.10
2017-12-11T11:17:59.114Z,0.10
2017-12-11T11:20:27.426Z,0.10
2017-12-11T11:22:56.468Z,0.20
2017-12-11T11:25:24.779Z,0.20
2017-12-11T11:27:53.068Z,0.20
2017-12-11T11:30:21.398Z,0.30
2017-12-11T11:32:50.458Z,0.30
2017-12-11T11:35:18.759Z,0.30
2017-12-11T11:37:47.061Z,0.40
2017-12-11T11:40:15.361Z,0.40
2017-12-11T11:42:43.674Z,0.40
2017-12-11T11:45:12.207Z,0.50
2017-12-11T11:47:40.486Z,0.50
2017-12-11T11:50:08.781Z,0.50
2017-12-11T11:52:37.120Z,0.60
2017-12-11T11:55:06.220Z,0.60
2017-12-11T11:57:34.504Z,0.50
2017-12-11T12:00:02.813Z,0.60
2017-12-11T12:02:32.119Z,0.60
2017-12-11T12:05:00.426Z,0.60
2017-12-11T12:07:28.794Z,0.60
2017-12-11T12:09:58.022Z,0.60
2017-12-11T12:12:27.077Z,0.60
2017-12-11T12:14:55.494Z,0.60
2017-12-11T12:17:23.778Z,0.60
2017-12-11T12:19:52.063Z,0.70
2017-12-11T12:22:20.359Z,0.70
2017-12-11T12:24:48.646Z,0.80
2017-12-11T12:27:16.978Z,0.80
2017-12-11T12:29:45.262Z,0.90
2017-12-11T12:32:13.549Z,1.00
2017-12-11T12:34:41.850Z,1.00
2017-12-11T12:37:10.130Z,1.00
2017-12-11T12:39:38.473Z,1.10
2017-12-11T12:42:06.760Z,1.10
2017-12-11T12:44:35.042Z,1.10
2017-12-11T12:47:03.399Z,1.10
2017-12-11T12:49:31.685Z,1.20
2017-12-11T12:51:59.995Z,1.30
2017-12-11T12:54:29.179Z,1.30
2017-12-11T12:56:57.464Z,1.40
2017-12-11T12:59:25.759Z,1.40
2017-12-11T13:01:54.070Z,1.40
2017-12-11T13:04:22.381Z,1.40
2017-12-11T13:06:50.663Z,1.40
2017-12-11T13:09:18.958Z,1.40
2017-12-11T13:11:47.243Z,1.40
2017-12-11T13:14:15.530Z,1.40
2017-12-11T13:16:43.856Z,1.50
2017-12-11T13:19:12.144Z,1.50
2017-12-11T13:21:41.208Z,1.70
2017-12-11T13:24:09.492Z,1.70
2017-12-11T13:26:37.810Z,1.80
2017-12-11T13:29:06.127Z,1.80
2017-12-11T13:31:35.177Z,2.00
2017-12-11T13:34:03.458Z,1.90
2017-12-11T13:36:31.852Z,2.00
2017-12-11T13:39:00.132Z,2.10
2017-12-11T13:41:28.827Z,2.20
2017-12-11T13:43:57.146Z,2.20
2017-12-11T13:46:25.470Z,2.30
2017-12-11T13:48:54.523Z,2.40
2017-12-11T13:51:22.818Z,2.50
2017-12-11T13:53:51.110Z,2.40
2017-12-11T13:56:19.499Z,2.50
2017-12-11T13:58:47.791Z,2.50
2017-12-11T14:01:16.107Z,2.60
2017-12-11T14:03:44.391Z,2.60
2017-12-11T14:06:12.687Z,2.60
2017-12-11T14:08:41.003Z,2.50
2017-12-11T14:11:10.059Z,2.60
2017-12-11T14:13:38.379Z,2.60
2017-12-11T14:16:06.738Z,2.60
2017-12-11T14:18:35.161Z,2.70
2017-12-11T14:21:03.467Z,2.70
2017-12-11T14:23:31.962Z,2.60
2017-12-11T14:26:01.172Z,2.40
2017-12-11T14:28:30.390Z,2.40
2017-12-11T14:30:59.567Z,2.30
2017-12-11T14:33:28.238Z,2.30
2017-12-11T14:35:56.538Z,2.30
2017-12-11T14:38:24.847Z,2.40
2017-12-11T14:40:53.142Z,2.50
2017-12-11T14:43:21.482Z,2.60
2017-12-11T14:45:49.761Z,2.60
2017-12-11T14:48:18.388Z,2.50
2017-12-11T14:50:47.623Z,2.50
2017-12-11T14:53:15.932Z,2.40
2017-12-11T14:55:44.998Z,2.50
2017-12-11T14:58:13.331Z,2.40
2017-12-11T15:00:42.404Z,2.30
2017-12-11T15:03:10.714Z,2.20
2017-12-11T15:05:39.006Z,2.20
2017-12-11T15:08:07.352Z,2.10
2017-12-11T15:10:35.658Z,2.10
2017-12-11T15:13:04.072Z,2.00
2017-12-11T15:15:32.390Z,1.90
2017-12-11T15:18:00.803Z,1.90
2017-12-11T15:20:29.097Z,1.90
2017-12-11T15:22:57.392Z,1.80
2017-12-11T15:25:25.711Z,1.80
2017-12-11T15:27:54.015Z,1.90
2017-12-11T15:30:23.104Z,2.00
2017-12-11T15:32:51.404Z,2.00
2017-12-11T15:35:19.717Z,2.10
2017-12-11T15:37:48.769Z,2.20
2017-12-11T15:40:17.085Z,2.20
2017-12-11T15:42:45.367Z,2.30
2017-12-11T15:45:13.657Z,2.40
2017-12-11T15:47:41.944Z,2.50
2017-12-11T15:50:10.231Z,2.60
2017-12-11T15:52:38.507Z,2.60
2017-12-11T15:55:06.789Z,2.60
2017-12-11T15:57:35.106Z,2.60
2017-12-11T16:00:03.390Z,2.70
2017-12-11T16:02:31.808Z,2.70
2017-12-11T16:05:00.859Z,2.80
2017-12-11T16:07:29.160Z,2.80
2017-12-11T16:09:57.444Z,2.90
2017-12-11T16:12:25.733Z,2.90
2017-12-11T16:14:54.144Z,3.00
2017-12-11T16:17:22.440Z,3.00
2017-12-11T16:19:50.727Z,3.10
2017-12-11T16:22:19.014Z,3.10
2017-12-11T16:24:47.302Z,3.10
2017-12-11T16:27:16.352Z,3.20
2017-12-11T16:29:44.635Z,3.20
2017-12-11T16:32:12.934Z,3.20
2017-12-11T16:34:41.216Z,3.20
2017-12-11T16:37:09.526Z,3.20
2017-12-11T16:39:38.746Z,3.20
2017-12-11T16:42:07.054Z,3.30
2017-12-11T16:44:35.343Z,3.30
2017-12-11T16:47:03.661Z,3.30
2017-12-11T16:49:31.944Z,3.30
2017-12-11T16:52:00.250Z,3.40
2017-12-11T16:54:29.411Z,3.30
2017-12-11T16:56:57.753Z,3.30
2017-12-11T16:59:26.119Z,3.30
2017-12-11T17:01:54.495Z,3.40
2017-12-11T17:04:23.655Z,3.40
2017-12-11T17:06:51.967Z,3.30
2017-12-11T17:09:20.336Z,3.40
2017-12-11T17:11:48.806Z,3.40
2017-12-11T17:14:17.137Z,3.40
2017-12-11T17:16:45.691Z,3.50
2017-12-11T17:19:14.798Z,3.40
2017-12-11T17:21:43.894Z,3.40
2017-12-11T17:24:12.247Z,3.40
2017-12-11T17:26:40.582Z,3.40
2017-12-11T17:29:08.869Z,3.50
2017-12-11T17:31:37.154Z,3.50
2017-12-11T17:34:05.438Z,3.40
2017-12-11T17:36:33.751Z,3.50
2017-12-11T17:39:02.836Z,3.50
2017-12-11T17:41:31.114Z,3.50
2017-12-11T17:43:59.430Z,3.50
2017-12-11T17:46:27.710Z,3.50
2017-12-11T17:48:56.923Z,3.60
2017-12-11T17:51:25.997Z,3.60
2017-12-11T17:53:54.280Z,3.60
2017-12-11T17:56:22.562Z,3.60
2017-12-11T17:58:50.851Z,3.60
2017-12-11T18:01:19.244Z,3.60
2017-12-11T18:03:48.331Z,3.60
2017-12-11T18:06:16.670Z,3.60
2017-12-11T18:08:44.964Z,3.60
2017-12-11T18:11:13.243Z,3.60
2017-12-11T18:13:41.568Z,3.70
2017-12-11T18:16:10.621Z,3.70
2017-12-11T18:18:38.895Z,3.70
2017-12-11T18:21:07.179Z,3.70
2017-12-11T18:23:35.478Z,3.70
2017-12-11T18:26:03.783Z,3.80
2017-12-11T18:28:32.077Z,3.80
2017-12-11T18:31:00.362Z,3.80
2017-12-11T18:33:28.654Z,3.80
2017-12-11T18:35:56.950Z,3.80
2017-12-11T18:38:25.263Z,3.80
2017-12-11T18:40:53.551Z,3.80
2017-12-11T18:43:22.595Z,4.00
2017-12-11T18:45:50.883Z,3.90
2017-12-11T18:48:19.200Z,4.00
2017-12-11T18:50:47.506Z,4.00
2017-12-11T18:53:15.792Z,4.00
2017-12-11T18:55:44.110Z,4.00
2017-12-11T18:58:12.394Z,4.10
2017-12-11T19:00:41.460Z,4.00
2017-12-11T19:03:09.749Z,4.00
2017-12-11T19:05:38.041Z,4.00
2017-12-11T19:08:06.369Z,4.00
2017-12-11T19:10:35.414Z,3.90
2017-12-11T19:13:03.717Z,3.90
2017-12-11T19:15:32.011Z,3.90
2017-12-11T19:18:00.310Z,4.00
2017-12-11T19:20:28.636Z,4.00
2017-12-11T19:22:57.760Z,4.10
2017-12-11T19:25:26.125Z,4.00
2017-12-11T19:27:55.247Z,4.00
2017-12-11T19:30:24.368Z,3.90
2017-12-11T19:32:52.788Z,3.90
2017-12-11T19:35:21.168Z,3.90
2017-12-11T19:37:49.532Z,4.00
2017-12-11T19:40:17.916Z,4.00
2017-12-11T19:42:46.299Z,4.00
2017-12-11T19:45:14.711Z,4.00
2017-12-11T19:47:43.059Z,3.90
2017-12-11T19:50:12.219Z,4.00
2017-12-11T19:52:40.607Z,4.00
2017-12-11T19:55:08.943Z,4.00
2017-12-11T19:57:37.358Z,4.10
2017-12-11T20:00:05.711Z,4.10
2017-12-11T20:02:34.051Z,4.10
2017-12-11T20:05:02.512Z,4.00
2017-12-11T20:07:30.878Z,4.00
2017-12-11T20:09:59.174Z,4.00
2017-12-11T20:12:27.475Z,4.10
2017-12-11T20:14:55.773Z,4.10
2017-12-11T20:17:24.119Z,4.10
2017-12-11T20:19:52.459Z,4.00
2017-12-11T20:22:20.778Z,4.00
2017-12-11T20:24:49.823Z,4.10
2017-12-11T20:27:18.106Z,4.10
2017-12-11T20:29:46.396Z,4.10
2017-12-11T20:32:14.674Z,4.10
2017-12-11T20:34:42.987Z,4.10
2017-12-11T20:37:11.291Z,4.00
2017-12-11T20:39:39.614Z,3.90
2017-12-11T20:42:08.652Z,4.00
2017-12-11T20:44:36.931Z,4.00
2017-12-11T20:47:05.224Z,4.00
2017-12-11T20:49:33.520Z,3.90
2017-12-11T20:52:01.840Z,3.80
2017-12-11T20:54:30.132Z,3.70
2017-12-11T20:56:58.426Z,3.80
2017-12-11T20:59:26.708Z,3.80
2017-12-11T21:01:54.995Z,3.80
2017-12-11T21:04:23.283Z,3.80
2017-12-11T21:06:51.564Z,3.80
2017-12-11T21:09:19.858Z,3.70
2017-12-11T21:11:48.168Z,3.70
2017-12-11T21:14:16.457Z,3.80
2017-12-11T21:16:44.759Z,3.80
2017-12-11T21:19:13.043Z,3.80
2017-12-11T21:21:42.194Z,3.80
2017-12-11T21:24:11.143Z,3.70
2017-12-11T21:26:39.428Z,3.70
2017-12-11T21:29:07.727Z,3.70
2017-12-11T21:31:36.010Z,3.60
2017-12-11T21:34:04.295Z,3.60
2017-12-11T21:36:32.577Z,3.60
2017-12-11T21:39:00.869Z,3.60
2017-12-11T21:41:29.186Z,3.60
2017-12-11T21:43:57.467Z,3.60
2017-12-11T21:46:25.751Z,3.60
2017-12-11T21:48:54.035Z,3.50
2017-12-11T21:51:22.317Z,3.50
2017-12-11T21:53:50.631Z,3.50
2017-12-11T21:56:19.687Z,3.50
2017-12-11T21:58:47.979Z,3.40
2017-12-11T22:01:17.039Z,3.30
2017-12-11T22:03:45.359Z,3.30
2017-12-11T22:06:14.406Z,3.20
2017-12-11T22:08:42.692Z,3.20
2017-12-11T22:11:11.090Z,3.20
2017-12-11T22:13:39.410Z,3.20
2017-12-11T22:16:08.458Z,3.30
2017-12-11T22:18:36.747Z,3.30
2017-12-11T22:21:05.038Z,3.30
2017-12-11T22:23:34.299Z,3.20
2017-12-11T22:26:03.348Z,3.30
2017-12-11T22:28:31.723Z,3.30
2017-12-11T22:31:00.081Z,3.40
2017-12-11T22:33:29.212Z,3.30
2017-12-11T22:35:57.596Z,3.30
2017-12-11T22:38:26.712Z,3.30
2017-12-11T22:40:55.081Z,3.30
2017-12-11T22:43:23.425Z,3.20
2017-12-11T22:45:51.800Z,3.10
2017-12-11T22:48:20.125Z,3.20
2017-12-11T22:50:48.474Z,3.20
2017-12-11T22:53:16.809Z,3.10
2017-12-11T22:55:46.004Z,3.10
2017-12-11T22:58:14.291Z,3.10
2017-12-11T23:00:42.590Z,3.10
2017-12-11T23:03:10.862Z,3.00
2017-12-11T23:05:39.141Z,3.00
2017-12-11T23:08:07.428Z,3.00
2017-12-11T23:10:35.735Z,3.00
2017-12-11T23:13:04.019Z,3.00
2017-12-11T23:15:32.294Z,3.00
2017-12-11T23:18:00.576Z,3.00
2017-12-11T23:20:28.862Z,3.00
2017-12-11T23:22:57.186Z,2.90
2017-12-11T23:25:25.478Z,2.80
2017-12-11T23:27:53.783Z,2.80
2017-12-11T23:30:22.063Z,2.80
2017-12-11T23:32:50.444Z,2.80
2017-12-11T23:35:18.795Z,2.80
2017-12-11T23:37:47.161Z,2.80
2017-12-11T23:40:16.280Z,2.80
2017-12-11T23:42:44.643Z,2.80
2017-12-11T23:45:12.946Z,2.80
2017-12-11T23:47:41.231Z,2.80
2017-12-11T23:50:09.647Z,2.70
2017-12-11T23:52:37.944Z,2.70
2017-12-11T23:55:06.990Z,2.80
2017-12-11T23:57:35.262Z,2.80
